sensor_id;sensor_type;location;lat;lon;timestamp;P1;durP1;ratioP1;P2;durP2;ratioP2
4365;SDS011;2196;47.422;9.656;2023-06-04T00:00:06;5.97;;;5.63;;
4365;SDS011;2196;47.422;9.656;2023-06-04T00:02:34;5.77;;;5.27;;
4365;SDS011;2196;47.422;9.656;2023-06-04T00:05:00;6.20;;;5.70;;
4365;SDS011;2196;47.422;9.656;2023-06-04T00:07:29;5.67;;;5.27;;
4365;SDS011;2196;47.422;9.656;2023-06-04T00:09:56;6.30;;;5.70;;
4365;SDS011;2196;47.422;9.656;2023-06-04T00:12:23;5.07;;;4.80;;
4365;SDS011;2196;47.422;9.656;2023-06-04T00:14:49;6.40;;;5.93;;
4365;SDS011;2196;47.422;9.656;2023-06-04T00:17:16;5.67;;;5.17;;
4365;SDS011;2196;47.422;9.656;2023-06-04T00:19:43;6.17;;;5.67;;
4365;SDS011;2196;47.422;9.656;2023-06-04T00:22:10;6.33;;;5.83;;
4365;SDS011;2196;47.422;9.656;2023-06-04T00:24:39;6.83;;;6.20;;
4365;SDS011;2196;47.422;9.656;2023-06-04T00:27:06;6.00;;;5.53;;
4365;SDS011;2196;47.422;9.656;2023-06-04T00:29:37;5.47;;;5.07;;
4365;SDS011;2196;47.422;9.656;2023-06-04T00:32:04;5.20;;;4.90;;
4365;SDS011;2196;47.422;9.656;2023-06-04T00:34:35;7.87;;;5.63;;
4365;SDS011;2196;47.422;9.656;2023-06-04T00:37:02;5.40;;;5.10;;
4365;SDS011;2196;47.422;9.656;2023-06-04T00:39:29;5.50;;;5.00;;
4365;SDS011;2196;47.422;9.656;2023-06-04T00:41:57;7.23;;;5.60;;
4365;SDS011;2196;47.422;9.656;2023-06-04T00:44:24;5.50;;;5.00;;
4365;SDS011;2196;47.422;9.656;2023-06-04T00:46:51;5.03;;;4.63;;
4365;SDS011;2196;47.422;9.656;2023-06-04T00:49:19;4.80;;;4.40;;
4365;SDS011;2196;47.422;9.656;2023-06-04T00:51:47;5.30;;;5.00;;
4365;SDS011;2196;47.422;9.656;2023-06-04T00:54:14;4.77;;;4.53;;
4365;SDS011;2196;47.422;9.656;2023-06-04T00:56:43;5.10;;;4.80;;
4365;SDS011;2196;47.422;9.656;2023-06-04T00:59:11;6.00;;;5.40;;
4365;SDS011;2196;47.422;9.656;2023-06-04T01:01:40;6.70;;;6.10;;
4365;SDS011;2196;47.422;9.656;2023-06-04T01:04:12;6.03;;;5.40;;
4365;SDS011;2196;47.422;9.656;2023-06-04T01:06:45;6.90;;;6.30;;
4365;SDS011;2196;47.422;9.656;2023-06-04T01:09:16;6.83;;;6.33;;
4365;SDS011;2196;47.422;9.656;2023-06-04T01:11:44;6.53;;;5.93;;
4365;SDS011;2196;47.422;9.656;2023-06-04T01:14:12;6.13;;;5.67;;
4365;SDS011;2196;47.422;9.656;2023-06-04T01:16:43;7.47;;;6.83;;
4365;SDS011;2196;47.422;9.656;2023-06-04T01:19:23;7.03;;;6.43;;
4365;SDS011;2196;47.422;9.656;2023-06-04T01:22:15;8.53;;;7.57;;
4365;SDS011;2196;47.422;9.656;2023-06-04T01:24:51;6.80;;;6.20;;
4365;SDS011;2196;47.422;9.656;2023-06-04T01:27:22;8.60;;;6.80;;
4365;SDS011;2196;47.422;9.656;2023-06-04T01:29:51;8.23;;;7.47;;
4365;SDS011;2196;47.422;9.656;2023-06-04T01:32:18;7.33;;;6.63;;
4365;SDS011;2196;47.422;9.656;2023-06-04T01:34:45;7.70;;;7.00;;
4365;SDS011;2196;47.422;9.656;2023-06-04T01:37:13;7.93;;;7.17;;
4365;SDS011;2196;47.422;9.656;2023-06-04T01:39:41;8.93;;;8.17;;
4365;SDS011;2196;47.422;9.656;2023-06-04T01:42:08;7.47;;;6.73;;
4365;SDS011;2196;47.422;9.656;2023-06-04T01:44:38;7.80;;;7.20;;
4365;SDS011;2196;47.422;9.656;2023-06-04T01:47:09;7.30;;;6.77;;
4365;SDS011;2196;47.422;9.656;2023-06-04T01:52:02;7.80;;;7.10;;
4365;SDS011;2196;47.422;9.656;2023-06-04T01:54:30;9.03;;;7.37;;
4365;SDS011;2196;47.422;9.656;2023-06-04T01:56:58;6.70;;;6.20;;
4365;SDS011;2196;47.422;9.656;2023-06-04T01:59:25;7.13;;;6.50;;
4365;SDS011;2196;47.422;9.656;2023-06-04T02:01:52;7.93;;;7.30;;
4365;SDS011;2196;47.422;9.656;2023-06-04T02:04:21;7.40;;;6.80;;
4365;SDS011;2196;47.422;9.656;2023-06-04T02:06:48;7.67;;;6.97;;
4365;SDS011;2196;47.422;9.656;2023-06-04T02:09:15;8.73;;;8.03;;
4365;SDS011;2196;47.422;9.656;2023-06-04T02:11:42;7.87;;;7.10;;
4365;SDS011;2196;47.422;9.656;2023-06-04T02:14:09;8.00;;;7.20;;
4365;SDS011;2196;47.422;9.656;2023-06-04T02:16:35;7.60;;;6.90;;
4365;SDS011;2196;47.422;9.656;2023-06-04T02:19:04;5.83;;;5.53;;
4365;SDS011;2196;47.422;9.656;2023-06-04T02:21:32;7.73;;;7.17;;
4365;SDS011;2196;47.422;9.656;2023-06-04T02:24:00;6.67;;;6.27;;
4365;SDS011;2196;47.422;9.656;2023-06-04T02:26:27;6.93;;;6.40;;
4365;SDS011;2196;47.422;9.656;2023-06-04T02:28:54;7.27;;;6.53;;
4365;SDS011;2196;47.422;9.656;2023-06-04T02:31:21;7.67;;;7.07;;
4365;SDS011;2196;47.422;9.656;2023-06-04T02:33:48;6.60;;;6.03;;
4365;SDS011;2196;47.422;9.656;2023-06-04T02:36:15;6.53;;;6.03;;
4365;SDS011;2196;47.422;9.656;2023-06-04T02:38:44;7.63;;;6.77;;
4365;SDS011;2196;47.422;9.656;2023-06-04T02:41:11;6.67;;;6.07;;
4365;SDS011;2196;47.422;9.656;2023-06-04T02:43:38;7.60;;;7.00;;
4365;SDS011;2196;47.422;9.656;2023-06-04T02:46:05;6.53;;;6.03;;
4365;SDS011;2196;47.422;9.656;2023-06-04T02:48:32;6.80;;;6.17;;
4365;SDS011;2196;47.422;9.656;2023-06-04T02:50:59;6.70;;;6.20;;
4365;SDS011;2196;47.422;9.656;2023-06-04T02:53:26;8.33;;;7.57;;
4365;SDS011;2196;47.422;9.656;2023-06-04T02:55:54;8.40;;;7.47;;
4365;SDS011;2196;47.422;9.656;2023-06-04T02:58:21;7.67;;;7.10;;
4365;SDS011;2196;47.422;9.656;2023-06-04T03:00:51;7.67;;;6.97;;
4365;SDS011;2196;47.422;9.656;2023-06-04T03:03:19;7.67;;;7.07;;
4365;SDS011;2196;47.422;9.656;2023-06-04T03:05:45;8.33;;;7.73;;
4365;SDS011;2196;47.422;9.656;2023-06-04T03:08:13;7.97;;;7.30;;
4365;SDS011;2196;47.422;9.656;2023-06-04T03:10:40;8.03;;;7.43;;
4365;SDS011;2196;47.422;9.656;2023-06-04T03:13:08;8.30;;;7.43;;
4365;SDS011;2196;47.422;9.656;2023-06-04T03:15:35;9.10;;;8.30;;
4365;SDS011;2196;47.422;9.656;2023-06-04T03:18:04;8.53;;;7.93;;
4365;SDS011;2196;47.422;9.656;2023-06-04T03:20:31;8.53;;;7.83;;
4365;SDS011;2196;47.422;9.656;2023-06-04T03:23:03;8.10;;;7.30;;
4365;SDS011;2196;47.422;9.656;2023-06-04T03:25:30;9.13;;;8.23;;
4365;SDS011;2196;47.422;9.656;2023-06-04T03:27:57;8.87;;;8.03;;
4365;SDS011;2196;47.422;9.656;2023-06-04T03:30:25;9.37;;;8.50;;
4365;SDS011;2196;47.422;9.656;2023-06-04T03:32:52;9.30;;;8.50;;
4365;SDS011;2196;47.422;9.656;2023-06-04T03:35:19;8.43;;;7.73;;
4365;SDS011;2196;47.422;9.656;2023-06-04T03:37:46;10.50;;;9.50;;
4365;SDS011;2196;47.422;9.656;2023-06-04T03:40:13;8.67;;;7.77;;
4365;SDS011;2196;47.422;9.656;2023-06-04T03:42:40;9.37;;;8.43;;
4365;SDS011;2196;47.422;9.656;2023-06-04T03:45:08;10.33;;;9.33;;
4365;SDS011;2196;47.422;9.656;2023-06-04T03:47:37;9.10;;;8.50;;
4365;SDS011;2196;47.422;9.656;2023-06-04T03:50:05;9.27;;;8.40;;
4365;SDS011;2196;47.422;9.656;2023-06-04T03:52:32;10.17;;;9.30;;
4365;SDS011;2196;47.422;9.656;2023-06-04T03:54:59;9.87;;;8.97;;
4365;SDS011;2196;47.422;9.656;2023-06-04T03:57:26;8.03;;;7.43;;
4365;SDS011;2196;47.422;9.656;2023-06-04T03:59:53;9.37;;;8.47;;
4365;SDS011;2196;47.422;9.656;2023-06-04T04:02:20;9.20;;;8.30;;
4365;SDS011;2196;47.422;9.656;2023-06-04T04:04:48;8.03;;;7.43;;
4365;SDS011;2196;47.422;9.656;2023-06-04T04:07:19;9.17;;;8.37;;
4365;SDS011;2196;47.422;9.656;2023-06-04T04:09:47;8.47;;;7.77;;
4365;SDS011;2196;47.422;9.656;2023-06-04T04:12:14;9.03;;;8.13;;
4365;SDS011;2196;47.422;9.656;2023-06-04T04:14:42;8.07;;;7.53;;
4365;SDS011;2196;47.422;9.656;2023-06-04T04:17:09;9.63;;;8.60;;
4365;SDS011;2196;47.422;9.656;2023-06-04T04:19:39;8.43;;;7.73;;
4365;SDS011;2196;47.422;9.656;2023-06-04T04:22:07;7.43;;;6.90;;
4365;SDS011;2196;47.422;9.656;2023-06-04T04:24:42;10.50;;;9.40;;
4365;SDS011;2196;47.422;9.656;2023-06-04T04:27:10;8.40;;;7.60;;
4365;SDS011;2196;47.422;9.656;2023-06-04T04:29:37;8.63;;;7.80;;
4365;SDS011;2196;47.422;9.656;2023-06-04T04:32:04;8.43;;;7.73;;
4365;SDS011;2196;47.422;9.656;2023-06-04T04:34:35;10.20;;;9.40;;
4365;SDS011;2196;47.422;9.656;2023-06-04T04:37:04;10.27;;;9.43;;
4365;SDS011;2196;47.422;9.656;2023-06-04T04:39:35;11.20;;;10.00;;
4365;SDS011;2196;47.422;9.656;2023-06-04T04:42:02;10.80;;;9.70;;
4365;SDS011;2196;47.422;9.656;2023-06-04T04:44:29;8.57;;;7.87;;
4365;SDS011;2196;47.422;9.656;2023-06-04T04:46:56;8.43;;;7.83;;
4365;SDS011;2196;47.422;9.656;2023-06-04T04:49:23;8.57;;;7.97;;
4365;SDS011;2196;47.422;9.656;2023-06-04T04:51:50;8.17;;;7.43;;
4365;SDS011;2196;47.422;9.656;2023-06-04T04:54:17;8.73;;;8.03;;
4365;SDS011;2196;47.422;9.656;2023-06-04T04:56:45;8.27;;;7.70;;
4365;SDS011;2196;47.422;9.656;2023-06-04T04:59:12;8.63;;;7.93;;
4365;SDS011;2196;47.422;9.656;2023-06-04T05:01:39;8.73;;;7.93;;
4365;SDS011;2196;47.422;9.656;2023-06-04T05:04:05;9.43;;;8.53;;
4365;SDS011;2196;47.422;9.656;2023-06-04T05:06:32;9.47;;;8.63;;
4365;SDS011;2196;47.422;9.656;2023-06-04T05:09:00;9.83;;;9.13;;
4365;SDS011;2196;47.422;9.656;2023-06-04T05:11:27;10.47;;;9.47;;
4365;SDS011;2196;47.422;9.656;2023-06-04T05:13:55;10.27;;;9.37;;
4365;SDS011;2196;47.422;9.656;2023-06-04T05:16:22;9.67;;;9.00;;
4365;SDS011;2196;47.422;9.656;2023-06-04T05:18:50;9.50;;;8.60;;
4365;SDS011;2196;47.422;9.656;2023-06-04T05:21:17;9.27;;;8.53;;
4365;SDS011;2196;47.422;9.656;2023-06-04T05:23:44;7.77;;;7.23;;
4365;SDS011;2196;47.422;9.656;2023-06-04T05:26:13;9.10;;;8.37;;
4365;SDS011;2196;47.422;9.656;2023-06-04T05:28:40;8.63;;;7.93;;
4365;SDS011;2196;47.422;9.656;2023-06-04T05:31:10;8.40;;;7.60;;
4365;SDS011;2196;47.422;9.656;2023-06-04T05:33:38;8.60;;;7.77;;
4365;SDS011;2196;47.422;9.656;2023-06-04T05:36:05;7.17;;;6.77;;
4365;SDS011;2196;47.422;9.656;2023-06-04T05:38:32;7.27;;;6.67;;
4365;SDS011;2196;47.422;9.656;2023-06-04T05:41:00;7.37;;;6.67;;
4365;SDS011;2196;47.422;9.656;2023-06-04T05:43:28;6.70;;;6.30;;
4365;SDS011;2196;47.422;9.656;2023-06-04T05:45:55;6.70;;;6.13;;
4365;SDS011;2196;47.422;9.656;2023-06-04T05:48:23;7.53;;;6.80;;
4365;SDS011;2196;47.422;9.656;2023-06-04T05:50:50;6.83;;;6.33;;
4365;SDS011;2196;47.422;9.656;2023-06-04T05:53:17;7.07;;;6.53;;
4365;SDS011;2196;47.422;9.656;2023-06-04T05:55:44;7.77;;;7.03;;
4365;SDS011;2196;47.422;9.656;2023-06-04T05:58:11;6.37;;;6.03;;
4365;SDS011;2196;47.422;9.656;2023-06-04T06:00:38;6.60;;;6.13;;
4365;SDS011;2196;47.422;9.656;2023-06-04T06:03:05;6.43;;;5.83;;
4365;SDS011;2196;47.422;9.656;2023-06-04T06:05:34;6.13;;;5.80;;
4365;SDS011;2196;47.422;9.656;2023-06-04T06:08:01;6.17;;;5.77;;
4365;SDS011;2196;47.422;9.656;2023-06-04T06:10:28;7.10;;;5.97;;
4365;SDS011;2196;47.422;9.656;2023-06-04T06:12:55;7.03;;;6.37;;
4365;SDS011;2196;47.422;9.656;2023-06-04T06:15:22;5.30;;;5.00;;
4365;SDS011;2196;47.422;9.656;2023-06-04T06:17:50;6.07;;;5.67;;
4365;SDS011;2196;47.422;9.656;2023-06-04T06:20:17;5.70;;;5.30;;
4365;SDS011;2196;47.422;9.656;2023-06-04T06:22:45;6.10;;;5.70;;
4365;SDS011;2196;47.422;9.656;2023-06-04T06:25:12;6.90;;;6.20;;
4365;SDS011;2196;47.422;9.656;2023-06-04T06:27:40;6.97;;;5.60;;
4365;SDS011;2196;47.422;9.656;2023-06-04T06:30:08;6.23;;;5.87;;
4365;SDS011;2196;47.422;9.656;2023-06-04T06:32:35;8.93;;;5.43;;
4365;SDS011;2196;47.422;9.656;2023-06-04T06:35:02;6.00;;;5.60;;
4365;SDS011;2196;47.422;9.656;2023-06-04T06:37:32;5.10;;;4.80;;
4365;SDS011;2196;47.422;9.656;2023-06-04T06:40:01;5.37;;;5.17;;
4365;SDS011;2196;47.422;9.656;2023-06-04T06:42:32;5.57;;;5.17;;
4365;SDS011;2196;47.422;9.656;2023-06-04T06:44:59;6.97;;;6.27;;
4365;SDS011;2196;47.422;9.656;2023-06-04T06:47:26;6.13;;;5.63;;
4365;SDS011;2196;47.422;9.656;2023-06-04T06:49:53;6.67;;;6.23;;
4365;SDS011;2196;47.422;9.656;2023-06-04T06:52:20;6.37;;;5.97;;
4365;SDS011;2196;47.422;9.656;2023-06-04T06:54:47;6.00;;;5.23;;
4365;SDS011;2196;47.422;9.656;2023-06-04T06:57:16;10.10;;;5.67;;
4365;SDS011;2196;47.422;9.656;2023-06-04T06:59:43;7.10;;;6.63;;
4365;SDS011;2196;47.422;9.656;2023-06-04T07:02:10;6.50;;;6.10;;
4365;SDS011;2196;47.422;9.656;2023-06-04T07:04:40;6.63;;;6.10;;
4365;SDS011;2196;47.422;9.656;2023-06-04T07:07:07;7.13;;;6.63;;
4365;SDS011;2196;47.422;9.656;2023-06-04T07:09:36;7.33;;;6.20;;
4365;SDS011;2196;47.422;9.656;2023-06-04T07:12:04;5.33;;;5.03;;
4365;SDS011;2196;47.422;9.656;2023-06-04T07:14:32;7.77;;;6.20;;
4365;SDS011;2196;47.422;9.656;2023-06-04T07:17:00;7.57;;;6.80;;
4365;SDS011;2196;47.422;9.656;2023-06-04T07:19:27;6.43;;;6.03;;
4365;SDS011;2196;47.422;9.656;2023-06-04T07:21:54;6.40;;;6.00;;
4365;SDS011;2196;47.422;9.656;2023-06-04T07:24:21;6.57;;;6.07;;
4365;SDS011;2196;47.422;9.656;2023-06-04T07:26:48;6.77;;;5.60;;
4365;SDS011;2196;47.422;9.656;2023-06-04T07:29:15;8.40;;;7.40;;
4365;SDS011;2196;47.422;9.656;2023-06-04T07:31:43;7.20;;;6.70;;
4365;SDS011;2196;47.422;9.656;2023-06-04T07:34:11;7.07;;;6.47;;
4365;SDS011;2196;47.422;9.656;2023-06-04T07:36:38;7.63;;;6.93;;
4365;SDS011;2196;47.422;9.656;2023-06-04T07:39:05;8.87;;;7.47;;
4365;SDS011;2196;47.422;9.656;2023-06-04T07:41:33;7.60;;;7.10;;
4365;SDS011;2196;47.422;9.656;2023-06-04T07:44:00;8.57;;;7.97;;
4365;SDS011;2196;47.422;9.656;2023-06-04T07:46:27;7.80;;;7.30;;
4365;SDS011;2196;47.422;9.656;2023-06-04T07:48:56;8.07;;;7.53;;
4365;SDS011;2196;47.422;9.656;2023-06-04T07:51:23;7.43;;;6.83;;
4365;SDS011;2196;47.422;9.656;2023-06-04T07:53:50;9.40;;;6.93;;
4365;SDS011;2196;47.422;9.656;2023-06-04T07:56:17;7.40;;;7.00;;
4365;SDS011;2196;47.422;9.656;2023-06-04T07:58:44;9.13;;;8.23;;
4365;SDS011;2196;47.422;9.656;2023-06-04T08:01:12;7.15;;;6.70;;
4365;SDS011;2196;47.422;9.656;2023-06-04T08:03:39;9.03;;;8.27;;
4365;SDS011;2196;47.422;9.656;2023-06-04T08:06:08;10.27;;;9.37;;
4365;SDS011;2196;47.422;9.656;2023-06-04T08:08:41;7.72;;;7.22;;
4365;SDS011;2196;47.422;9.656;2023-06-04T08:11:10;9.13;;;6.80;;
4365;SDS011;2196;47.422;9.656;2023-06-04T08:13:37;8.75;;;8.00;;
4365;SDS011;2196;47.422;9.656;2023-06-04T08:16:05;8.65;;;7.95;;
4365;SDS011;2196;47.422;9.656;2023-06-04T08:18:38;8.15;;;7.53;;
4365;SDS011;2196;47.422;9.656;2023-06-04T08:21:05;8.05;;;7.55;;
4365;SDS011;2196;47.422;9.656;2023-06-04T08:23:35;8.73;;;8.13;;
4365;SDS011;2196;47.422;9.656;2023-06-04T08:26:03;7.95;;;7.47;;
4365;SDS011;2196;47.422;9.656;2023-06-04T08:28:30;10.00;;;9.20;;
4365;SDS011;2196;47.422;9.656;2023-06-04T08:30:57;9.18;;;8.20;;
4365;SDS011;2196;47.422;9.656;2023-06-04T08:33:24;9.30;;;8.35;;
4365;SDS011;2196;47.422;9.656;2023-06-04T08:35:51;8.70;;;8.10;;
4365;SDS011;2196;47.422;9.656;2023-06-04T08:38:19;9.05;;;8.25;;
4365;SDS011;2196;47.422;9.656;2023-06-04T08:40:47;10.50;;;9.80;;
4365;SDS011;2196;47.422;9.656;2023-06-04T08:43:18;10.65;;;9.85;;
4365;SDS011;2196;47.422;9.656;2023-06-04T08:45:46;8.82;;;8.32;;
4365;SDS011;2196;47.422;9.656;2023-06-04T08:48:16;9.80;;;8.90;;
4365;SDS011;2196;47.422;9.656;2023-06-04T08:50:47;10.10;;;9.32;;
4365;SDS011;2196;47.422;9.656;2023-06-04T08:53:15;8.30;;;7.57;;
4365;SDS011;2196;47.422;9.656;2023-06-04T08:55:44;8.43;;;7.80;;
4365;SDS011;2196;47.422;9.656;2023-06-04T08:58:11;8.70;;;7.90;;
4365;SDS011;2196;47.422;9.656;2023-06-04T09:00:39;7.68;;;7.00;;
4365;SDS011;2196;47.422;9.656;2023-06-04T09:03:06;7.72;;;7.20;;
4365;SDS011;2196;47.422;9.656;2023-06-04T09:05:35;7.18;;;6.78;;
4365;SDS011;2196;47.422;9.656;2023-06-04T09:08:04;7.55;;;7.05;;
4365;SDS011;2196;47.422;9.656;2023-06-04T09:10:34;7.25;;;6.68;;
4365;SDS011;2196;47.422;9.656;2023-06-04T09:13:05;12.00;;;7.70;;
4365;SDS011;2196;47.422;9.656;2023-06-04T09:15:34;8.20;;;7.40;;
4365;SDS011;2196;47.422;9.656;2023-06-04T09:18:01;7.38;;;6.85;;
4365;SDS011;2196;47.422;9.656;2023-06-04T09:20:28;8.02;;;7.32;;
4365;SDS011;2196;47.422;9.656;2023-06-04T09:22:55;8.43;;;7.82;;
4365;SDS011;2196;47.422;9.656;2023-06-04T09:25:22;7.68;;;7.18;;
4365;SDS011;2196;47.422;9.656;2023-06-04T09:27:50;6.72;;;6.32;;
4365;SDS011;2196;47.422;9.656;2023-06-04T09:30:19;7.85;;;7.25;;
4365;SDS011;2196;47.422;9.656;2023-06-04T09:32:46;8.07;;;7.47;;
4365;SDS011;2196;47.422;9.656;2023-06-04T09:35:14;9.07;;;7.72;;
4365;SDS011;2196;47.422;9.656;2023-06-04T09:37:42;8.75;;;8.15;;
4365;SDS011;2196;47.422;9.656;2023-06-04T09:40:17;9.52;;;7.97;;
4365;SDS011;2196;47.422;9.656;2023-06-04T09:42:44;8.77;;;8.07;;
4365;SDS011;2196;47.422;9.656;2023-06-04T09:45:25;7.85;;;7.10;;
4365;SDS011;2196;47.422;9.656;2023-06-04T09:47:55;9.30;;;8.40;;
4365;SDS011;2196;47.422;9.656;2023-06-04T09:50:24;8.52;;;7.80;;
4365;SDS011;2196;47.422;9.656;2023-06-04T09:52:52;7.50;;;6.97;;
4365;SDS011;2196;47.422;9.656;2023-06-04T09:55:19;8.15;;;7.50;;
4365;SDS011;2196;47.422;9.656;2023-06-04T09:57:47;10.82;;;9.80;;
4365;SDS011;2196;47.422;9.656;2023-06-04T10:00:16;8.70;;;8.00;;
4365;SDS011;2196;47.422;9.656;2023-06-04T10:02:47;8.98;;;8.23;;
4365;SDS011;2196;47.422;9.656;2023-06-04T10:05:15;9.50;;;8.73;;
4365;SDS011;2196;47.422;9.656;2023-06-04T10:07:46;8.43;;;7.93;;
4365;SDS011;2196;47.422;9.656;2023-06-04T10:10:17;7.90;;;7.32;;
4365;SDS011;2196;47.422;9.656;2023-06-04T10:12:47;7.82;;;7.30;;
4365;SDS011;2196;47.422;9.656;2023-06-04T10:15:17;8.63;;;7.75;;
4365;SDS011;2196;47.422;9.656;2023-06-04T10:17:46;6.25;;;5.95;;
4365;SDS011;2196;47.422;9.656;2023-06-04T10:20:14;7.25;;;6.68;;
4365;SDS011;2196;47.422;9.656;2023-06-04T10:22:44;6.63;;;6.10;;
4365;SDS011;2196;47.422;9.656;2023-06-04T10:25:14;7.07;;;6.68;;
4365;SDS011;2196;47.422;9.656;2023-06-04T10:27:43;7.53;;;6.80;;
4365;SDS011;2196;47.422;9.656;2023-06-04T10:30:10;6.38;;;5.78;;
4365;SDS011;2196;47.422;9.656;2023-06-04T10:32:38;6.57;;;6.07;;
4365;SDS011;2196;47.422;9.656;2023-06-04T10:35:07;7.10;;;5.85;;
4365;SDS011;2196;47.422;9.656;2023-06-04T10:37:34;6.10;;;5.70;;
4365;SDS011;2196;47.422;9.656;2023-06-04T10:40:01;9.45;;;6.97;;
4365;SDS011;2196;47.422;9.656;2023-06-04T10:42:37;6.43;;;5.93;;
4365;SDS011;2196;47.422;9.656;2023-06-04T10:45:05;6.50;;;6.03;;
4365;SDS011;2196;47.422;9.656;2023-06-04T10:47:35;10.50;;;6.00;;
4365;SDS011;2196;47.422;9.656;2023-06-04T10:50:10;7.47;;;6.78;;
4365;SDS011;2196;47.422;9.656;2023-06-04T10:52:38;6.35;;;5.88;;
4365;SDS011;2196;47.422;9.656;2023-06-04T10:55:16;7.90;;;6.00;;
4365;SDS011;2196;47.422;9.656;2023-06-04T10:57:50;6.20;;;5.35;;
4365;SDS011;2196;47.422;9.656;2023-06-04T11:00:18;5.70;;;5.27;;
4365;SDS011;2196;47.422;9.656;2023-06-04T11:02:52;5.63;;;5.22;;
4365;SDS011;2196;47.422;9.656;2023-06-04T11:05:32;5.40;;;4.97;;
4365;SDS011;2196;47.422;9.656;2023-06-04T11:08:00;4.50;;;4.25;;
4365;SDS011;2196;47.422;9.656;2023-06-04T11:10:30;5.87;;;5.53;;
4365;SDS011;2196;47.422;9.656;2023-06-04T11:13:00;5.80;;;5.20;;
4365;SDS011;2196;47.422;9.656;2023-06-04T11:15:36;6.00;;;5.50;;
4365;SDS011;2196;47.422;9.656;2023-06-04T11:18:05;5.68;;;5.03;;
4365;SDS011;2196;47.422;9.656;2023-06-04T11:20:33;5.20;;;4.90;;
4365;SDS011;2196;47.422;9.656;2023-06-04T11:23:00;5.40;;;5.00;;
4365;SDS011;2196;47.422;9.656;2023-06-04T11:25:28;5.78;;;5.35;;
4365;SDS011;2196;47.422;9.656;2023-06-04T11:27:58;5.00;;;4.70;;
4365;SDS011;2196;47.422;9.656;2023-06-04T11:30:26;5.97;;;5.23;;
4365;SDS011;2196;47.422;9.656;2023-06-04T11:33:00;5.03;;;4.70;;
4365;SDS011;2196;47.422;9.656;2023-06-04T11:35:28;4.97;;;4.57;;
4365;SDS011;2196;47.422;9.656;2023-06-04T11:37:57;5.05;;;4.68;;
4365;SDS011;2196;47.422;9.656;2023-06-04T11:40:25;6.20;;;5.60;;
4365;SDS011;2196;47.422;9.656;2023-06-04T11:42:52;5.40;;;5.13;;
4365;SDS011;2196;47.422;9.656;2023-06-04T11:45:20;4.82;;;4.53;;
4365;SDS011;2196;47.422;9.656;2023-06-04T11:47:48;5.88;;;5.30;;
4365;SDS011;2196;47.422;9.656;2023-06-04T11:50:18;5.30;;;4.82;;
4365;SDS011;2196;47.422;9.656;2023-06-04T11:52:46;4.40;;;4.20;;
4365;SDS011;2196;47.422;9.656;2023-06-04T11:55:15;4.80;;;4.50;;
4365;SDS011;2196;47.422;9.656;2023-06-04T11:57:45;5.18;;;4.80;;
4365;SDS011;2196;47.422;9.656;2023-06-04T12:00:14;5.50;;;5.05;;
4365;SDS011;2196;47.422;9.656;2023-06-04T12:02:48;6.85;;;5.15;;
4365;SDS011;2196;47.422;9.656;2023-06-04T12:05:16;6.05;;;5.60;;
4365;SDS011;2196;47.422;9.656;2023-06-04T12:07:44;5.32;;;5.03;;
4365;SDS011;2196;47.422;9.656;2023-06-04T12:10:12;4.83;;;4.53;;
4365;SDS011;2196;47.422;9.656;2023-06-04T12:12:41;4.73;;;4.37;;
4365;SDS011;2196;47.422;9.656;2023-06-04T12:15:08;4.82;;;4.53;;
4365;SDS011;2196;47.422;9.656;2023-06-04T12:17:36;5.55;;;5.03;;
4365;SDS011;2196;47.422;9.656;2023-06-04T12:20:04;6.83;;;5.50;;
4365;SDS011;2196;47.422;9.656;2023-06-04T12:22:32;4.77;;;4.37;;
4365;SDS011;2196;47.422;9.656;2023-06-04T12:25:10;4.80;;;4.17;;
4365;SDS011;2196;47.422;9.656;2023-06-04T12:27:37;5.10;;;4.67;;
4365;SDS011;2196;47.422;9.656;2023-06-04T12:30:14;5.30;;;5.00;;
4365;SDS011;2196;47.422;9.656;2023-06-04T12:32:41;5.30;;;4.80;;
4365;SDS011;2196;47.422;9.656;2023-06-04T12:35:09;5.27;;;4.87;;
4365;SDS011;2196;47.422;9.656;2023-06-04T12:37:36;3.97;;;3.67;;
4365;SDS011;2196;47.422;9.656;2023-06-04T12:40:03;5.33;;;4.97;;
4365;SDS011;2196;47.422;9.656;2023-06-04T12:42:31;5.00;;;4.20;;
4365;SDS011;2196;47.422;9.656;2023-06-04T12:45:00;4.93;;;4.57;;
4365;SDS011;2196;47.422;9.656;2023-06-04T12:47:27;4.63;;;4.40;;
4365;SDS011;2196;47.422;9.656;2023-06-04T12:49:54;5.38;;;5.07;;
4365;SDS011;2196;47.422;9.656;2023-06-04T12:52:20;4.85;;;4.55;;
4365;SDS011;2196;47.422;9.656;2023-06-04T12:54:47;5.97;;;4.90;;
4365;SDS011;2196;47.422;9.656;2023-06-04T12:57:15;4.97;;;4.57;;
4365;SDS011;2196;47.422;9.656;2023-06-04T12:59:42;5.47;;;4.97;;
4365;SDS011;2196;47.422;9.656;2023-06-04T13:02:13;4.63;;;4.35;;
4365;SDS011;2196;47.422;9.656;2023-06-04T13:04:40;5.28;;;4.88;;
4365;SDS011;2196;47.422;9.656;2023-06-04T13:07:09;5.20;;;4.90;;
4365;SDS011;2196;47.422;9.656;2023-06-04T13:09:36;5.40;;;4.97;;
4365;SDS011;2196;47.422;9.656;2023-06-04T13:12:04;5.47;;;4.57;;
4365;SDS011;2196;47.422;9.656;2023-06-04T13:14:31;5.30;;;5.00;;
4365;SDS011;2196;47.422;9.656;2023-06-04T13:16:59;5.17;;;4.87;;
4365;SDS011;2196;47.422;9.656;2023-06-04T13:19:27;5.13;;;4.70;;
4365;SDS011;2196;47.422;9.656;2023-06-04T13:21:54;9.47;;;5.00;;
4365;SDS011;2196;47.422;9.656;2023-06-04T13:24:22;5.50;;;5.10;;
4365;SDS011;2196;47.422;9.656;2023-06-04T13:26:49;5.27;;;4.97;;
4365;SDS011;2196;47.422;9.656;2023-06-04T13:29:16;4.87;;;4.57;;
4365;SDS011;2196;47.422;9.656;2023-06-04T13:31:47;4.47;;;4.28;;
4365;SDS011;2196;47.422;9.656;2023-06-04T13:34:14;14.73;;;13.40;;
4365;SDS011;2196;47.422;9.656;2023-06-04T13:36:42;5.55;;;4.95;;
4365;SDS011;2196;47.422;9.656;2023-06-04T13:39:09;6.55;;;5.30;;
4365;SDS011;2196;47.422;9.656;2023-06-04T13:41:36;4.68;;;4.47;;
4365;SDS011;2196;47.422;9.656;2023-06-04T13:44:03;4.93;;;4.60;;
4365;SDS011;2196;47.422;9.656;2023-06-04T13:46:31;4.60;;;4.40;;
4365;SDS011;2196;47.422;9.656;2023-06-04T13:48:58;5.80;;;5.22;;
4365;SDS011;2196;47.422;9.656;2023-06-04T13:51:25;4.28;;;4.07;;
4365;SDS011;2196;47.422;9.656;2023-06-04T13:53:53;5.82;;;5.43;;
4365;SDS011;2196;47.422;9.656;2023-06-04T13:56:20;4.28;;;3.92;;
4365;SDS011;2196;47.422;9.656;2023-06-04T13:58:47;4.47;;;4.10;;
4365;SDS011;2196;47.422;9.656;2023-06-04T14:01:14;5.55;;;5.05;;
4365;SDS011;2196;47.422;9.656;2023-06-04T14:03:41;4.82;;;4.53;;
4365;SDS011;2196;47.422;9.656;2023-06-04T14:06:09;4.57;;;4.28;;
4365;SDS011;2196;47.422;9.656;2023-06-04T14:08:36;5.80;;;4.47;;
4365;SDS011;2196;47.422;9.656;2023-06-04T14:11:05;3.50;;;3.20;;
4365;SDS011;2196;47.422;9.656;2023-06-04T14:13:32;7.03;;;4.03;;
4365;SDS011;2196;47.422;9.656;2023-06-04T14:15:59;3.00;;;2.90;;
4365;SDS011;2196;47.422;9.656;2023-06-04T14:18:25;8.77;;;3.43;;
4365;SDS011;2196;47.422;9.656;2023-06-04T14:20:52;8.80;;;5.23;;
4365;SDS011;2196;47.422;9.656;2023-06-04T14:23:19;4.27;;;3.87;;
4365;SDS011;2196;47.422;9.656;2023-06-04T14:25:46;5.40;;;3.90;;
4365;SDS011;2196;47.422;9.656;2023-06-04T14:28:16;3.33;;;3.07;;
4365;SDS011;2196;47.422;9.656;2023-06-04T14:30:45;3.63;;;2.73;;
4365;SDS011;2196;47.422;9.656;2023-06-04T14:33:12;3.13;;;2.90;;
4365;SDS011;2196;47.422;9.656;2023-06-04T14:35:39;8.57;;;3.57;;
4365;SDS011;2196;47.422;9.656;2023-06-04T14:38:11;2.93;;;2.73;;
4365;SDS011;2196;47.422;9.656;2023-06-04T14:40:39;3.27;;;2.97;;
4365;SDS011;2196;47.422;9.656;2023-06-04T14:43:06;2.60;;;2.50;;
4365;SDS011;2196;47.422;9.656;2023-06-04T14:45:35;3.53;;;2.80;;
4365;SDS011;2196;47.422;9.656;2023-06-04T14:48:03;2.87;;;2.77;;
4365;SDS011;2196;47.422;9.656;2023-06-04T14:50:30;3.00;;;2.80;;
4365;SDS011;2196;47.422;9.656;2023-06-04T14:52:58;4.20;;;3.03;;
4365;SDS011;2196;47.422;9.656;2023-06-04T14:55:26;3.67;;;3.33;;
4365;SDS011;2196;47.422;9.656;2023-06-04T14:57:53;3.53;;;3.07;;
4365;SDS011;2196;47.422;9.656;2023-06-04T15:00:22;3.43;;;3.07;;
4365;SDS011;2196;47.422;9.656;2023-06-04T15:02:50;4.43;;;3.33;;
4365;SDS011;2196;47.422;9.656;2023-06-04T15:05:17;2.67;;;2.47;;
4365;SDS011;2196;47.422;9.656;2023-06-04T15:07:44;2.87;;;2.67;;
4365;SDS011;2196;47.422;9.656;2023-06-04T15:10:11;3.10;;;2.57;;
4365;SDS011;2196;47.422;9.656;2023-06-04T15:12:38;2.53;;;2.43;;
4365;SDS011;2196;47.422;9.656;2023-06-04T15:15:06;2.10;;;2.00;;
4365;SDS011;2196;47.422;9.656;2023-06-04T15:17:34;3.67;;;2.03;;
4365;SDS011;2196;47.422;9.656;2023-06-04T15:20:03;2.03;;;1.87;;
4365;SDS011;2196;47.422;9.656;2023-06-04T15:22:30;2.33;;;2.03;;